createdAt,value
2022-08-03T04:00:32.473Z,0.00
2022-08-03T04:01:32.358Z,0.00
2022-08-03T04:02:32.365Z,0.00
2022-08-03T04:03:32.399Z,0.00
2022-08-03T04:04:32.321Z,0.00
2022-08-03T04:05:32.307Z,0.00
2022-08-03T04:06:32.305Z,0.00
2022-08-03T04:07:32.299Z,0.00
2022-08-03T04:08:32.279Z,0.00
2022-08-03T04:09:32.264Z,0.00
2022-08-03T04:10:32.253Z,0.00
2022-08-03T04:11:37.259Z,0.00
2022-08-03T04:12:32.381Z,0.00
2022-08-03T04:13:32.239Z,0.00
2022-08-03T04:14:32.217Z,5.62
2022-08-03T04:15:32.257Z,5.62
2022-08-03T04:16:32.193Z,5.62
2022-08-03T04:17:32.248Z,5.62
2022-08-03T04:18:32.192Z,5.62
2022-08-03T04:19:32.154Z,5.62
2022-08-03T04:20:32.175Z,5.62
2022-08-03T04:21:32.147Z,5.62
2022-08-03T04:22:37.170Z,5.62
2022-08-03T04:23:32.121Z,5.62
2022-08-03T04:24:32.105Z,5.62
2022-08-03T04:25:32.091Z,5.62
2022-08-03T04:26:32.103Z,5.62
2022-08-03T04:27:32.087Z,5.62
2022-08-03T04:28:32.197Z,11.25
2022-08-03T04:29:32.048Z,11.25
2022-08-03T04:30:32.053Z,11.25
2022-08-03T04:31:32.056Z,11.25
2022-08-03T04:32:32.041Z,11.25
2022-08-03T04:33:37.024Z,11.25
2022-08-03T04:34:32.109Z,11.25
2022-08-03T04:36:01.956Z,11.25
2022-08-03T04:36:32.981Z,11.25
2022-08-03T04:37:32.171Z,11.25
2022-08-03T04:38:31.946Z,11.25
2022-08-03T04:39:31.941Z,11.25
2022-08-03T04:40:31.945Z,16.88
2022-08-03T04:41:31.907Z,16.88
2022-08-03T04:42:31.918Z,16.88
2022-08-03T04:43:31.898Z,16.88
2022-08-03T04:44:37.040Z,16.88
2022-08-03T04:45:31.874Z,16.88
2022-08-03T04:46:31.860Z,16.88
2022-08-03T04:47:31.870Z,16.88
2022-08-03T04:48:31.868Z,16.88
2022-08-03T04:49:31.917Z,16.88
2022-08-03T04:50:31.810Z,16.88
2022-08-03T04:51:31.830Z,16.88
2022-08-03T04:52:31.843Z,16.88
2022-08-03T04:53:31.777Z,22.50
2022-08-03T04:54:31.768Z,22.50
2022-08-03T04:55:36.886Z,22.50
2022-08-03T04:56:31.769Z,22.50
2022-08-03T04:57:31.757Z,22.50
2022-08-03T04:58:31.793Z,22.50
2022-08-03T04:59:31.721Z,22.50
2022-08-03T05:00:31.705Z,22.50
2022-08-03T05:01:31.796Z,22.50
2022-08-03T05:02:31.814Z,22.50
2022-08-03T05:03:31.680Z,22.50
2022-08-03T05:04:31.673Z,28.12
2022-08-03T05:05:49.731Z,22.50
2022-08-03T05:06:47.812Z,28.12
2022-08-03T05:07:36.455Z,28.12
2022-08-03T05:08:31.622Z,28.12
2022-08-03T05:09:45.997Z,28.12
2022-08-03T05:10:32.589Z,28.12
2022-08-03T05:11:31.578Z,28.12
2022-08-03T05:12:33.195Z,28.12
2022-08-03T05:13:31.563Z,28.12
2022-08-03T05:14:31.559Z,28.12
2022-08-03T05:15:31.556Z,28.12
2022-08-03T05:16:31.571Z,28.12
2022-08-03T05:17:36.562Z,28.12
2022-08-03T05:18:31.497Z,33.75
2022-08-03T05:19:31.498Z,33.75
2022-08-03T05:20:31.511Z,33.75
2022-08-03T05:21:51.959Z,33.75
2022-08-03T05:22:32.487Z,33.75
2022-08-03T05:23:31.507Z,33.75
2022-08-03T05:24:31.434Z,33.75
2022-08-03T05:25:31.429Z,33.75
2022-08-03T05:26:31.507Z,33.75
2022-08-03T05:27:31.439Z,33.75
2022-08-03T05:28:36.422Z,33.75
2022-08-03T05:29:31.377Z,33.75
2022-08-03T05:30:34.180Z,33.75
2022-08-03T05:31:31.358Z,33.75
2022-08-03T05:32:31.374Z,33.75
2022-08-03T05:33:31.338Z,39.38
2022-08-03T05:34:31.322Z,39.38
2022-08-03T05:35:56.072Z,39.38
2022-08-03T05:36:32.376Z,39.38
2022-08-03T05:37:31.317Z,39.38
2022-08-03T05:38:33.911Z,39.38
2022-08-03T05:39:36.297Z,39.38
2022-08-03T05:40:31.263Z,39.38
2022-08-03T05:41:36.929Z,33.75
2022-08-03T05:42:32.247Z,33.75
2022-08-03T05:43:31.222Z,33.75
2022-08-03T05:44:31.217Z,33.75
2022-08-03T05:45:31.206Z,39.38
2022-08-03T05:46:31.188Z,39.38
2022-08-03T05:47:31.202Z,39.38
2022-08-03T05:48:31.170Z,39.38
2022-08-03T05:49:31.232Z,39.38
2022-08-03T05:50:39.853Z,39.38
2022-08-03T05:51:32.145Z,39.38
2022-08-03T05:52:31.161Z,39.38
2022-08-03T05:53:31.110Z,39.38
2022-08-03T05:54:56.374Z,39.38
2022-08-03T05:55:32.095Z,45.00
2022-08-03T05:56:31.076Z,45.00
2022-08-03T05:57:31.082Z,50.62
2022-08-03T05:58:31.057Z,50.62
2022-08-03T05:59:38.700Z,45.00
2022-08-03T06:00:32.071Z,45.00
2022-08-03T06:01:36.097Z,45.00
2022-08-03T06:02:31.083Z,45.00
2022-08-03T06:03:31.031Z,39.38
2022-08-03T06:04:31.006Z,39.38
2022-08-03T06:05:31.025Z,39.38
2022-08-03T06:06:32.475Z,39.38
2022-08-03T06:07:31.003Z,39.38
2022-08-03T06:08:30.957Z,45.00
2022-08-03T06:09:31.818Z,45.00
2022-08-03T06:10:37.209Z,45.00
2022-08-03T06:11:31.916Z,45.00
2022-08-03T06:12:35.983Z,45.00
2022-08-03T06:13:30.897Z,45.00
2022-08-03T06:14:30.884Z,45.00
2022-08-03T06:15:30.876Z,45.00
2022-08-03T06:16:30.882Z,50.62
2022-08-03T06:17:37.465Z,50.62
2022-08-03T06:18:31.855Z,50.62
2022-08-03T06:19:30.847Z,50.62
2022-08-03T06:20:30.902Z,50.62
2022-08-03T06:21:30.807Z,50.62
2022-08-03T06:22:30.794Z,50.62
2022-08-03T06:23:53.873Z,56.25
2022-08-03T06:24:31.772Z,56.25
2022-08-03T06:25:30.783Z,56.25
2022-08-03T06:26:30.772Z,56.25
2022-08-03T06:27:37.132Z,56.25
2022-08-03T06:28:51.354Z,56.25
2022-08-03T06:29:31.733Z,61.88
2022-08-03T06:30:30.710Z,61.88
2022-08-03T06:31:32.963Z,61.88
2022-08-03T06:32:30.682Z,67.50
2022-08-03T06:34:30.588Z,61.88
2022-08-03T06:34:36.681Z,61.88
2022-08-03T06:35:30.648Z,73.12
2022-08-03T06:36:30.647Z,101.25
2022-08-03T06:37:30.631Z,95.62
2022-08-03T06:38:30.659Z,73.12
2022-08-03T06:39:30.655Z,78.75
2022-08-03T06:40:30.606Z,78.75
2022-08-03T06:41:30.596Z,84.38
2022-08-03T06:42:31.571Z,78.75
2022-08-03T06:43:30.587Z,78.75
2022-08-03T06:44:31.562Z,78.75
2022-08-03T06:45:35.561Z,78.75
2022-08-03T06:46:30.533Z,84.38
2022-08-03T06:47:30.527Z,84.38
2022-08-03T06:48:30.575Z,73.12
2022-08-03T06:49:30.537Z,73.12
2022-08-03T06:50:30.481Z,67.50
2022-08-03T06:52:03.112Z,61.88
2022-08-03T06:52:37.948Z,61.88
2022-08-03T06:53:31.493Z,61.88
2022-08-03T06:54:33.352Z,61.88
2022-08-03T06:55:30.427Z,61.88
2022-08-03T06:56:35.448Z,61.88
2022-08-03T06:57:30.411Z,61.88
2022-08-03T06:58:30.413Z,73.12
2022-08-03T07:00:09.005Z,73.12
2022-08-03T07:00:31.372Z,67.50
2022-08-03T07:01:30.479Z,73.12
2022-08-03T07:02:30.378Z,67.50
2022-08-03T07:03:30.353Z,73.12
2022-08-03T07:04:30.326Z,67.50
2022-08-03T07:05:30.335Z,61.88
2022-08-03T07:06:30.307Z,61.88
2022-08-03T07:07:35.322Z,67.50
2022-08-03T07:08:33.461Z,73.12
2022-08-03T07:09:30.311Z,67.50
2022-08-03T07:10:30.265Z,61.88
2022-08-03T07:11:30.254Z,67.50
2022-08-03T07:12:30.383Z,67.50
2022-08-03T07:13:30.248Z,67.50
2022-08-03T07:14:30.232Z,67.50
2022-08-03T07:15:53.999Z,67.50
2022-08-03T07:16:31.201Z,67.50
2022-08-03T07:17:30.743Z,67.50
2022-08-03T07:18:35.250Z,67.50
2022-08-03T07:19:30.174Z,73.12
2022-08-03T07:20:32.611Z,90.00
2022-08-03T07:21:30.146Z,90.00
2022-08-03T07:22:30.147Z,90.00
2022-08-03T07:23:30.122Z,73.12
2022-08-03T07:24:30.117Z,67.50
2022-08-03T07:25:30.114Z,67.50
2022-08-03T07:26:30.090Z,67.50
2022-08-03T07:27:30.089Z,67.50
2022-08-03T07:28:30.067Z,73.12
2022-08-03T07:29:35.091Z,73.12
2022-08-03T07:30:30.042Z,73.12
2022-08-03T07:31:34.391Z,73.12
2022-08-03T07:32:30.018Z,73.12
2022-08-03T07:33:30.022Z,73.12
2022-08-03T07:34:30.032Z,73.12
2022-08-03T07:35:29.994Z,73.12
2022-08-03T07:36:30.027Z,73.12
2022-08-03T07:37:29.976Z,67.50
2022-08-03T07:38:29.953Z,67.50
2022-08-03T07:39:29.955Z,73.12
2022-08-03T07:40:34.954Z,78.75
2022-08-03T07:41:29.932Z,73.12
2022-08-03T07:42:29.924Z,78.75
2022-08-03T07:43:29.906Z,78.75
2022-08-03T07:44:29.928Z,78.75
2022-08-03T07:45:29.927Z,78.75
2022-08-03T07:46:29.877Z,78.75
2022-08-03T07:47:35.443Z,78.75
2022-08-03T07:48:30.850Z,67.50
2022-08-03T07:49:29.934Z,67.50
2022-08-03T07:50:29.832Z,67.50
2022-08-03T07:51:34.839Z,67.50
2022-08-03T07:52:29.802Z,73.12
2022-08-03T07:53:29.793Z,78.75
2022-08-03T07:54:29.842Z,78.75
2022-08-03T07:55:29.802Z,78.75
2022-08-03T07:56:29.762Z,78.75
2022-08-03T07:57:29.760Z,67.50
2022-08-03T07:58:29.786Z,67.50
2022-08-03T07:59:29.727Z,67.50
2022-08-03T08:00:30.724Z,67.50
2022-08-03T08:01:29.843Z,73.12
2022-08-03T08:02:34.726Z,90.00
2022-08-03T08:03:29.705Z,95.62
2022-08-03T08:04:30.709Z,95.62
2022-08-03T08:05:29.675Z,84.38
2022-08-03T08:06:29.667Z,84.38
2022-08-03T08:07:29.639Z,84.38
2022-08-03T08:08:29.629Z,84.38
2022-08-03T08:09:29.638Z,78.75
2022-08-03T08:10:29.610Z,84.38
2022-08-03T08:11:29.604Z,84.38
2022-08-03T08:12:29.595Z,84.38
2022-08-03T08:13:34.597Z,84.38
2022-08-03T08:14:29.633Z,84.38
2022-08-03T08:15:29.608Z,84.38
2022-08-03T08:16:29.552Z,84.38
2022-08-03T08:17:29.557Z,90.00
2022-08-03T08:18:29.567Z,90.00
2022-08-03T08:19:29.533Z,90.00
2022-08-03T08:20:31.437Z,95.62
2022-08-03T08:21:53.593Z,95.62
2022-08-03T08:22:31.441Z,95.62
2022-08-03T08:23:41.698Z,90.00
2022-08-03T08:24:35.478Z,90.00
2022-08-03T08:25:29.464Z,95.62
2022-08-03T08:26:29.433Z,90.00
2022-08-03T08:28:31.106Z,90.00
2022-08-03T08:28:33.753Z,84.38
2022-08-03T08:29:29.421Z,84.38
2022-08-03T08:30:29.438Z,84.38
2022-08-03T08:31:29.389Z,90.00
2022-08-03T08:32:29.400Z,90.00
2022-08-03T08:33:48.083Z,101.25
2022-08-03T08:34:30.346Z,101.25
2022-08-03T08:35:34.381Z,129.38
2022-08-03T08:36:29.327Z,118.12
2022-08-03T08:37:29.318Z,112.50
2022-08-03T08:38:29.308Z,95.62
2022-08-03T08:39:29.292Z,95.62
2022-08-03T08:40:29.320Z,95.62
2022-08-03T08:41:32.096Z,101.25
2022-08-03T08:42:29.258Z,168.75
2022-08-03T08:43:29.277Z,95.62
2022-08-03T08:44:29.238Z,95.62
2022-08-03T08:45:29.269Z,95.62
2022-08-03T08:46:34.239Z,95.62
2022-08-03T08:47:29.210Z,95.62
2022-08-03T08:48:30.194Z,95.62
2022-08-03T08:49:29.278Z,95.62
2022-08-03T08:50:29.280Z,101.25
2022-08-03T08:51:50.577Z,101.25
2022-08-03T08:52:32.171Z,106.88
2022-08-03T08:53:29.172Z,106.88
2022-08-03T08:54:29.125Z,106.88
2022-08-03T08:55:29.128Z,106.88
2022-08-03T08:56:29.139Z,140.62
2022-08-03T08:57:42.969Z,106.88
2022-08-03T08:58:30.082Z,101.25
2022-08-03T08:59:48.741Z,95.62
2022-08-03T09:00:30.096Z,101.25
2022-08-03T09:01:29.133Z,95.62
2022-08-03T09:02:29.038Z,101.25
2022-08-03T09:03:30.036Z,95.62
2022-08-03T09:04:29.037Z,101.25
2022-08-03T09:05:55.047Z,101.25
2022-08-03T09:06:29.998Z,95.62
2022-08-03T09:07:28.989Z,90.00
2022-08-03T09:08:34.018Z,106.88
2022-08-03T09:10:10.875Z,281.25
2022-08-03T09:10:29.981Z,298.12
2022-08-03T09:12:00.961Z,270.00
2022-08-03T09:12:41.612Z,551.25
2022-08-03T09:13:29.921Z,163.12
2022-08-03T09:14:33.666Z,258.75
2022-08-03T09:15:29.913Z,247.50
2022-08-03T09:16:28.947Z,95.62
2022-08-03T09:17:28.881Z,95.62
2022-08-03T09:18:30.520Z,95.62
2022-08-03T09:19:33.878Z,95.62
2022-08-03T09:20:28.865Z,123.75
2022-08-03T09:21:33.251Z,365.62
2022-08-03T09:22:29.825Z,241.88
2022-08-03T09:23:59.016Z,95.62
2022-08-03T09:24:41.127Z,95.62
2022-08-03T09:25:29.821Z,101.25
2022-08-03T09:26:28.878Z,101.25
2022-08-03T09:27:28.767Z,106.88
2022-08-03T09:29:00.204Z,241.88
2022-08-03T09:29:29.790Z,354.38
2022-08-03T09:30:35.206Z,174.38
2022-08-03T09:31:28.847Z,112.50
2022-08-03T09:32:28.716Z,106.88
2022-08-03T09:33:35.939Z,118.12
2022-08-03T09:34:29.706Z,489.38
2022-08-03T09:35:51.598Z,613.12
2022-08-03T09:36:29.674Z,545.62
2022-08-03T09:38:12.272Z,765.00
2022-08-03T09:38:29.660Z,916.88
2022-08-03T09:39:40.759Z,416.25
2022-08-03T09:40:29.665Z,303.75
2022-08-03T09:41:33.641Z,219.38
2022-08-03T09:42:28.633Z,185.62
2022-08-03T09:43:28.676Z,264.38
2022-08-03T09:44:28.584Z,264.38
2022-08-03T09:45:28.610Z,303.75
2022-08-03T09:46:28.566Z,354.38
2022-08-03T09:47:28.578Z,157.50
2022-08-03T09:48:28.554Z,180.00
2022-08-03T09:49:28.562Z,191.25
2022-08-03T09:50:28.544Z,264.38
2022-08-03T09:52:17.965Z,236.25
2022-08-03T09:52:37.665Z,196.88
2022-08-03T09:53:29.494Z,157.50
2022-08-03T09:54:33.506Z,112.50
2022-08-03T09:56:32.754Z,112.50
2022-08-03T09:56:36.217Z,106.88
2022-08-03T09:57:29.489Z,112.50
2022-08-03T09:58:28.431Z,106.88
2022-08-03T09:59:28.422Z,101.25
2022-08-03T10:00:28.458Z,101.25
2022-08-03T10:01:28.446Z,101.25
2022-08-03T10:02:28.458Z,101.25
2022-08-03T10:03:28.382Z,101.25
2022-08-03T10:04:28.409Z,101.25
2022-08-03T10:05:28.400Z,101.25
2022-08-03T10:06:29.173Z,112.50
2022-08-03T10:07:33.373Z,101.25
2022-08-03T10:08:28.368Z,101.25
2022-08-03T10:09:28.348Z,101.25
2022-08-03T10:10:29.594Z,106.88
2022-08-03T10:11:28.382Z,106.88
2022-08-03T10:12:28.299Z,106.88
2022-08-03T10:13:28.282Z,106.88
2022-08-03T10:14:28.305Z,106.88
2022-08-03T10:16:21.712Z,112.50
2022-08-03T10:16:29.240Z,562.50
2022-08-03T10:17:28.244Z,770.62
2022-08-03T10:18:28.222Z,196.88
2022-08-03T10:19:28.216Z,118.12
2022-08-03T10:20:33.243Z,123.75
2022-08-03T10:21:28.213Z,106.88
2022-08-03T10:22:28.756Z,112.50
2022-08-03T10:23:33.159Z,106.88
2022-08-03T10:24:29.176Z,118.12
2022-08-03T10:25:33.297Z,112.50
2022-08-03T10:26:29.138Z,118.12
2022-08-03T10:27:28.142Z,140.62
2022-08-03T10:28:28.118Z,112.50
2022-08-03T10:29:28.138Z,112.50
2022-08-03T10:30:28.093Z,135.00
2022-08-03T10:31:28.090Z,123.75
2022-08-03T10:32:28.080Z,123.75
2022-08-03T10:33:50.869Z,421.88
2022-08-03T10:34:29.143Z,663.75
2022-08-03T10:35:28.081Z,680.62
2022-08-03T10:36:28.209Z,112.50
2022-08-03T10:37:28.032Z,112.50
2022-08-03T10:38:28.011Z,112.50
2022-08-03T10:39:28.061Z,112.50
2022-08-03T10:40:51.113Z,118.12
2022-08-03T10:41:28.991Z,118.12
2022-08-03T10:42:28.070Z,118.12
2022-08-03T10:43:27.997Z,129.38
2022-08-03T10:44:27.981Z,146.25
2022-08-03T10:45:27.959Z,123.75
2022-08-03T10:46:32.949Z,123.75
2022-08-03T10:47:27.931Z,123.75
2022-08-03T10:48:27.937Z,202.50
2022-08-03T10:49:34.640Z,129.38
2022-08-03T10:50:28.943Z,118.12
2022-08-03T10:51:27.893Z,146.25
2022-08-03T10:52:31.899Z,123.75
2022-08-03T10:53:28.962Z,146.25
2022-08-03T10:54:27.844Z,135.00
2022-08-03T10:55:27.895Z,298.12
2022-08-03T10:56:35.463Z,343.12
2022-08-03T10:57:28.846Z,225.00
2022-08-03T10:58:30.835Z,326.25
2022-08-03T10:59:32.835Z,315.00
2022-08-03T11:00:27.990Z,326.25
2022-08-03T11:01:27.780Z,230.62
2022-08-03T11:02:28.754Z,388.12
2022-08-03T11:03:27.772Z,804.38
2022-08-03T11:04:27.893Z,697.50
2022-08-03T11:05:27.737Z,714.38
2022-08-03T11:06:27.713Z,185.62
2022-08-03T11:07:28.701Z,213.75
2022-08-03T11:08:27.715Z,191.25
2022-08-03T11:09:27.693Z,213.75
2022-08-03T11:10:27.703Z,472.50
2022-08-03T11:11:27.649Z,1029.38
2022-08-03T11:12:32.834Z,1507.50
2022-08-03T11:13:27.653Z,1957.50
2022-08-03T11:14:27.677Z,1822.50
2022-08-03T11:15:27.658Z,1203.75
2022-08-03T11:16:27.641Z,748.12
2022-08-03T11:17:27.590Z,140.62
2022-08-03T11:18:27.622Z,151.88
2022-08-03T11:19:27.754Z,168.75
2022-08-03T11:20:27.611Z,804.38
2022-08-03T11:21:30.370Z,888.75
2022-08-03T11:22:27.550Z,2497.50
2022-08-03T11:24:04.780Z,1490.62
2022-08-03T11:24:28.513Z,1158.75
2022-08-03T11:25:54.098Z,3948.75
2022-08-03T11:26:28.551Z,3639.38
2022-08-03T11:27:27.522Z,3768.75
2022-08-03T11:28:27.471Z,4100.62
2022-08-03T11:29:27.606Z,4016.25
2022-08-03T11:30:27.577Z,4083.75
2022-08-03T11:31:48.880Z,4117.50
2022-08-03T11:32:28.519Z,3892.50
2022-08-03T11:33:27.457Z,3976.88
2022-08-03T11:34:27.433Z,4190.62
2022-08-03T11:35:27.450Z,2936.25
2022-08-03T11:36:32.036Z,596.25
2022-08-03T11:37:33.155Z,534.38
2022-08-03T11:38:33.390Z,371.25
2022-08-03T11:39:27.355Z,213.75
2022-08-03T11:40:27.418Z,365.62
2022-08-03T11:41:27.367Z,686.25
2022-08-03T11:42:27.335Z,202.50
2022-08-03T11:43:30.813Z,247.50
2022-08-03T11:44:27.318Z,202.50
2022-08-03T11:45:27.343Z,258.75
2022-08-03T11:46:28.686Z,123.75
2022-08-03T11:47:27.278Z,196.88
2022-08-03T11:48:27.379Z,174.38
2022-08-03T11:49:32.384Z,382.50
2022-08-03T11:50:27.277Z,798.75
2022-08-03T11:51:27.242Z,247.50
2022-08-03T11:52:28.731Z,703.12
2022-08-03T11:53:27.217Z,388.12
2022-08-03T11:54:27.221Z,202.50
2022-08-03T11:55:30.582Z,3172.50
2022-08-03T11:56:27.211Z,3223.12
2022-08-03T11:59:01.263Z,360.00
2022-08-03T11:59:10.876Z,4072.50
2022-08-03T11:59:28.160Z,3661.88
2022-08-03T12:00:32.185Z,2806.88
2022-08-03T12:01:27.156Z,3819.38
2022-08-03T12:02:27.149Z,3661.88
2022-08-03T12:03:27.169Z,3701.25
2022-08-03T12:04:27.173Z,4055.62
2022-08-03T12:05:27.195Z,4286.25
2022-08-03T12:06:27.086Z,4297.50
2022-08-03T12:08:03.173Z,4123.12
2022-08-03T12:08:28.095Z,4066.88
2022-08-03T12:09:27.060Z,4100.62
2022-08-03T12:10:27.071Z,3802.50
2022-08-03T12:11:32.095Z,3352.50
2022-08-03T12:12:27.022Z,3318.75
2022-08-03T12:14:44.751Z,3639.38
2022-08-03T12:14:50.074Z,3875.62
2022-08-03T12:15:28.129Z,4027.50
2022-08-03T12:16:27.040Z,4061.25
2022-08-03T12:17:27.003Z,4168.12
2022-08-03T12:18:27.002Z,4185.00
2022-08-03T12:19:26.974Z,3982.50
2022-08-03T12:20:31.289Z,3948.75
2022-08-03T12:21:27.945Z,3976.88
2022-08-03T12:22:31.983Z,3931.88
2022-08-03T12:23:26.927Z,3875.62
2022-08-03T12:24:27.047Z,3819.38
2022-08-03T12:25:38.741Z,3785.62
2022-08-03T12:26:27.900Z,3864.38
2022-08-03T12:27:27.001Z,4100.62
2022-08-03T12:28:31.822Z,4134.38
2022-08-03T12:29:27.877Z,4162.50
2022-08-03T12:30:26.905Z,4168.12
2022-08-03T12:31:26.862Z,4145.62
2022-08-03T12:32:26.849Z,3870.00
2022-08-03T12:33:31.874Z,3735.00
2022-08-03T12:34:27.258Z,3746.25
2022-08-03T12:35:26.829Z,3735.00
2022-08-03T12:36:26.822Z,2722.50
2022-08-03T12:37:26.787Z,736.88
2022-08-03T12:38:26.794Z,135.00
2022-08-03T12:39:26.771Z,123.75
2022-08-03T12:40:28.321Z,112.50
2022-08-03T12:41:26.754Z,106.88
2022-08-03T12:42:26.765Z,106.88
2022-08-03T12:43:26.806Z,106.88
2022-08-03T12:44:32.773Z,106.88
2022-08-03T12:45:26.785Z,106.88
2022-08-03T12:46:26.731Z,101.25
2022-08-03T12:47:26.698Z,101.25
2022-08-03T12:48:27.742Z,101.25
2022-08-03T12:49:26.766Z,101.25
2022-08-03T12:50:26.719Z,101.25
2022-08-03T12:51:26.738Z,101.25
2022-08-03T12:52:26.686Z,101.25
2022-08-03T12:53:26.666Z,101.25
2022-08-03T12:54:26.656Z,101.25
2022-08-03T12:55:31.667Z,95.62
2022-08-03T12:56:27.889Z,95.62
2022-08-03T12:57:26.597Z,95.62
2022-08-03T12:58:26.597Z,95.62
2022-08-03T12:59:35.018Z,95.62
2022-08-03T13:00:29.332Z,95.62
2022-08-03T13:01:26.641Z,95.62
2022-08-03T13:02:26.666Z,95.62
2022-08-03T13:03:39.469Z,95.62
2022-08-03T13:04:27.562Z,95.62
2022-08-03T13:05:26.519Z,95.62
2022-08-03T13:06:31.548Z,95.62
2022-08-03T13:07:26.572Z,101.25
2022-08-03T13:08:26.526Z,95.62
2022-08-03T13:09:26.576Z,95.62
2022-08-03T13:10:26.483Z,95.62
2022-08-03T13:11:53.476Z,95.62
2022-08-03T13:12:27.517Z,95.62
2022-08-03T13:13:26.454Z,95.62
2022-08-03T13:14:26.434Z,95.62
2022-08-03T13:15:26.435Z,95.62
2022-08-03T13:16:27.404Z,95.62
2022-08-03T13:17:31.418Z,95.62
2022-08-03T13:18:26.404Z,95.62
2022-08-03T13:19:26.393Z,95.62
2022-08-03T13:20:26.478Z,95.62
2022-08-03T13:21:26.376Z,95.62
2022-08-03T13:22:26.356Z,95.62
2022-08-03T13:23:26.328Z,95.62
2022-08-03T13:24:26.317Z,95.62
2022-08-03T13:25:26.303Z,95.62
2022-08-03T13:26:26.307Z,95.62
2022-08-03T13:28:04.322Z,95.62
2022-08-03T13:28:27.278Z,95.62
2022-08-03T13:29:26.295Z,95.62
2022-08-03T13:30:31.290Z,95.62
2022-08-03T13:31:26.300Z,95.62
2022-08-03T13:32:26.272Z,95.62
2022-08-03T13:33:26.304Z,95.62
2022-08-03T13:34:26.201Z,90.00
2022-08-03T13:35:26.189Z,95.62
2022-08-03T13:36:26.221Z,95.62
2022-08-03T13:37:26.633Z,95.62
2022-08-03T13:38:27.139Z,95.62
2022-08-03T13:39:32.349Z,95.62
2022-08-03T13:40:30.330Z,95.62
2022-08-03T13:41:31.049Z,95.62
2022-08-03T13:42:27.165Z,95.62
2022-08-03T13:43:31.148Z,95.62
2022-08-03T13:44:29.819Z,95.62
2022-08-03T13:45:26.112Z,90.00
2022-08-03T13:46:26.080Z,90.00
2022-08-03T13:47:26.086Z,90.00
2022-08-03T13:48:36.765Z,90.00
2022-08-03T13:49:27.140Z,90.00
2022-08-03T13:50:26.045Z,90.00
2022-08-03T13:51:27.001Z,90.00
2022-08-03T13:52:26.046Z,90.00
2022-08-03T13:53:26.023Z,90.00
2022-08-03T13:54:26.009Z,90.00
2022-08-03T13:55:26.000Z,90.00
2022-08-03T13:56:31.002Z,90.00
2022-08-03T13:58:02.972Z,90.00
2022-08-03T13:58:27.006Z,90.00
2022-08-03T13:59:25.941Z,90.00
2022-08-03T14:00:27.344Z,90.00
2022-08-03T14:01:54.184Z,90.00
2022-08-03T14:02:26.973Z,90.00
2022-08-03T14:03:25.904Z,90.00
2022-08-03T14:04:25.897Z,84.38
2022-08-03T14:05:25.899Z,84.38
2022-08-03T14:06:25.905Z,84.38
2022-08-03T14:07:25.931Z,84.38
2022-08-03T14:08:25.868Z,84.38
2022-08-03T14:09:31.041Z,84.38
2022-08-03T14:10:25.910Z,84.38
2022-08-03T14:11:25.841Z,84.38
2022-08-03T14:12:26.824Z,84.38
2022-08-03T14:13:25.802Z,84.38
2022-08-03T14:14:25.788Z,84.38
2022-08-03T14:15:25.783Z,84.38
2022-08-03T14:16:25.799Z,84.38
2022-08-03T14:17:25.785Z,84.38
2022-08-03T14:18:28.346Z,84.38
2022-08-03T14:19:26.751Z,84.38
2022-08-03T14:20:36.292Z,84.38
2022-08-03T14:21:26.758Z,84.38
2022-08-03T14:22:30.758Z,84.38
2022-08-03T14:23:25.724Z,84.38
2022-08-03T14:24:25.705Z,84.38
2022-08-03T14:25:25.673Z,90.00
2022-08-03T14:26:25.667Z,84.38
2022-08-03T14:27:25.737Z,90.00
2022-08-03T14:28:25.730Z,84.38
2022-08-03T14:29:25.643Z,84.38
2022-08-03T14:30:25.616Z,84.38
2022-08-03T14:32:09.833Z,84.38
2022-08-03T14:32:26.666Z,84.38
2022-08-03T14:33:25.683Z,84.38
2022-08-03T14:34:25.577Z,84.38
2022-08-03T14:35:30.601Z,84.38
2022-08-03T14:36:25.613Z,84.38
2022-08-03T14:37:25.589Z,84.38
2022-08-03T14:38:25.592Z,84.38
2022-08-03T14:39:25.770Z,84.38
2022-08-03T14:40:25.555Z,84.38
2022-08-03T14:41:25.515Z,84.38
2022-08-03T14:42:25.515Z,84.38
2022-08-03T14:43:25.560Z,84.38
2022-08-03T14:44:26.478Z,84.38
2022-08-03T14:45:25.609Z,84.38
2022-08-03T14:46:25.524Z,84.38
2022-08-03T14:47:25.499Z,84.38
2022-08-03T14:50:34.938Z,84.38
2022-08-03T14:50:36.927Z,84.38
2022-08-03T14:50:38.880Z,84.38
2022-08-03T14:51:26.408Z,84.38
2022-08-03T14:52:26.399Z,78.75
2022-08-03T14:53:25.426Z,78.75
2022-08-03T14:54:25.403Z,78.75
2022-08-03T14:55:25.363Z,78.75
2022-08-03T14:56:26.380Z,78.75
2022-08-03T14:57:25.384Z,78.75
2022-08-03T14:58:25.386Z,78.75
2022-08-03T14:59:25.343Z,78.75
2022-08-03T15:00:25.396Z,78.75
2022-08-03T15:02:06.230Z,78.75
2022-08-03T15:02:26.384Z,78.75
2022-08-03T15:03:25.339Z,78.75
2022-08-03T15:04:25.387Z,78.75
2022-08-03T15:05:25.258Z,78.75
2022-08-03T15:06:25.273Z,78.75
2022-08-03T15:07:25.244Z,78.75
2022-08-03T15:08:25.249Z,78.75
2022-08-03T15:09:25.210Z,78.75
2022-08-03T15:10:30.637Z,78.75
2022-08-03T15:11:26.189Z,78.75
2022-08-03T15:12:25.230Z,78.75
2022-08-03T15:13:25.199Z,78.75
2022-08-03T15:14:33.225Z,78.75
2022-08-03T15:15:25.308Z,78.75
2022-08-03T15:16:25.161Z,78.75
2022-08-03T15:17:25.134Z,78.75
2022-08-03T15:18:25.142Z,78.75
2022-08-03T15:20:03.242Z,78.75
2022-08-03T15:20:42.447Z,73.12
2022-08-03T15:21:46.771Z,73.12
2022-08-03T15:22:35.039Z,73.12
2022-08-03T15:23:26.103Z,73.12
2022-08-03T15:24:25.053Z,73.12
2022-08-03T15:26:28.727Z,73.12
2022-08-03T15:26:32.781Z,73.12
2022-08-03T15:27:31.083Z,73.12
2022-08-03T15:28:25.100Z,73.12
2022-08-03T15:30:07.434Z,73.12
2022-08-03T15:30:26.036Z,73.12
2022-08-03T15:31:25.032Z,73.12
2022-08-03T15:32:24.966Z,73.12
2022-08-03T15:33:24.969Z,73.12
2022-08-03T15:34:24.975Z,73.12
2022-08-03T15:35:24.938Z,73.12
2022-08-03T15:36:24.925Z,73.12
2022-08-03T15:37:25.059Z,73.12
2022-08-03T15:38:25.761Z,73.12
2022-08-03T15:39:24.931Z,73.12
2022-08-03T15:40:29.905Z,73.12
2022-08-03T15:41:24.897Z,73.12
2022-08-03T15:42:24.935Z,73.12
2022-08-03T15:43:24.869Z,73.12
2022-08-03T15:44:24.851Z,73.12
2022-08-03T15:45:24.840Z,73.12
2022-08-03T15:46:29.621Z,73.12
2022-08-03T15:47:25.815Z,73.12
2022-08-03T15:48:26.496Z,73.12
2022-08-03T15:49:24.800Z,73.12
2022-08-03T15:50:24.781Z,73.12
2022-08-03T15:51:24.773Z,73.12
2022-08-03T15:52:24.790Z,73.12
2022-08-03T15:53:29.868Z,73.12
2022-08-03T15:54:24.778Z,73.12
2022-08-03T15:55:24.774Z,73.12
2022-08-03T15:56:24.718Z,73.12
2022-08-03T15:57:24.710Z,73.12
2022-08-03T15:59:07.604Z,73.12
2022-08-03T15:59:25.712Z,73.12
2022-08-03T16:00:33.414Z,67.50
2022-08-03T16:01:25.740Z,67.50
2022-08-03T16:02:24.705Z,67.50
2022-08-03T16:03:24.817Z,67.50
2022-08-03T16:04:24.638Z,67.50
2022-08-03T16:05:24.644Z,67.50
2022-08-03T16:06:36.045Z,67.50
2022-08-03T16:07:25.650Z,67.50
2022-08-03T16:08:24.675Z,67.50
2022-08-03T16:09:42.043Z,67.50
2022-08-03T16:10:25.608Z,67.50
2022-08-03T16:11:24.563Z,67.50
2022-08-03T16:12:24.556Z,67.50
2022-08-03T16:14:12.356Z,67.50
2022-08-03T16:14:33.290Z,67.50
2022-08-03T16:15:25.526Z,67.50
2022-08-03T16:16:24.749Z,67.50
2022-08-03T16:17:24.907Z,67.50
2022-08-03T16:18:24.503Z,67.50
2022-08-03T16:19:29.522Z,67.50
2022-08-03T16:20:31.140Z,67.50
2022-08-03T16:21:25.479Z,67.50
2022-08-03T16:22:24.443Z,67.50
2022-08-03T16:23:24.461Z,67.50
2022-08-03T16:24:27.858Z,67.50
2022-08-03T16:25:24.416Z,67.50
2022-08-03T16:26:24.416Z,67.50
2022-08-03T16:27:37.320Z,67.50
2022-08-03T16:28:25.397Z,67.50
2022-08-03T16:29:24.477Z,67.50
2022-08-03T16:30:24.393Z,67.50
2022-08-03T16:31:24.368Z,67.50
2022-08-03T16:32:29.374Z,67.50
2022-08-03T16:33:24.359Z,67.50
2022-08-03T16:34:24.369Z,67.50
2022-08-03T16:35:24.332Z,61.88
2022-08-03T16:36:24.329Z,61.88
2022-08-03T16:37:39.602Z,61.88
2022-08-03T16:38:25.296Z,61.88
2022-08-03T16:39:24.376Z,61.88
2022-08-03T16:40:24.272Z,61.88
2022-08-03T16:41:24.317Z,61.88
2022-08-03T16:42:24.283Z,61.88
2022-08-03T16:43:24.227Z,61.88